sensor_id;sensor_type;location;lat;lon;timestamp;temperature;humidity
14119;DHT22;7138;49.246;9.100;2024-03-23T00:52:36;10.00;99.90
14119;DHT22;7138;49.246;9.100;2024-03-23T00:55:01;10.00;99.90
14119;DHT22;7138;49.246;9.100;2024-03-23T00:57:27;9.90;99.90
14119;DHT22;7138;49.246;9.100;2024-03-23T00:59:53;9.80;99.90
14119;DHT22;7138;49.246;9.100;2024-03-23T01:02:19;9.80;99.90
14119;DHT22;7138;49.246;9.100;2024-03-23T01:04:45;9.70;99.90
14119;DHT22;7138;49.246;9.100;2024-03-23T01:07:11;9.60;99.90
14119;DHT22;7138;49.246;9.100;2024-03-23T01:09:38;9.60;99.90
14119;DHT22;7138;49.246;9.100;2024-03-23T01:12:04;9.60;99.90
14119;DHT22;7138;49.246;9.100;2024-03-23T01:14:30;9.50;99.90
14119;DHT22;7138;49.246;9.100;2024-03-23T01:16:56;9.50;99.90
14119;DHT22;7138;49.246;9.100;2024-03-23T01:19:22;9.50;99.90
14119;DHT22;7138;49.246;9.100;2024-03-23T01:21:48;9.50;99.90
14119;DHT22;7138;49.246;9.100;2024-03-23T01:24:14;9.40;99.90
14119;DHT22;7138;49.246;9.100;2024-03-23T01:26:41;9.30;99.90
14119;DHT22;7138;49.246;9.100;2024-03-23T01:29:08;9.30;99.90
14119;DHT22;7138;49.246;9.100;2024-03-23T01:31:34;9.30;99.90
14119;DHT22;7138;49.246;9.100;2024-03-23T01:33:59;9.40;99.90
14119;DHT22;7138;49.246;9.100;2024-03-23T01:36:25;9.40;99.90
14119;DHT22;7138;49.246;9.100;2024-03-23T01:38:51;9.40;99.90
14119;DHT22;7138;49.246;9.100;2024-03-23T01:41:17;9.40;99.90
14119;DHT22;7138;49.246;9.100;2024-03-23T01:43:44;9.50;99.90
14119;DHT22;7138;49.246;9.100;2024-03-23T01:46:10;9.40;99.90
14119;DHT22;7138;49.246;9.100;2024-03-23T01:48:36;9.40;99.90
14119;DHT22;7138;49.246;9.100;2024-03-23T01:51:03;9.30;99.90
14119;DHT22;7138;49.246;9.100;2024-03-23T01:53:30;9.30;99.90
14119;DHT22;7138;49.246;9.100;2024-03-23T01:55:56;9.20;99.90
14119;DHT22;7138;49.246;9.100;2024-03-23T01:58:22;9.20;99.90
14119;DHT22;7138;49.246;9.100;2024-03-23T02:00:49;9.10;99.90
14119;DHT22;7138;49.246;9.100;2024-03-23T02:03:24;9.00;99.90
14119;DHT22;7138;49.246;9.100;2024-03-23T02:05:51;8.90;99.90
14119;DHT22;7138;49.246;9.100;2024-03-23T02:08:21;8.90;99.90
14119;DHT22;7138;49.246;9.100;2024-03-23T02:10:48;8.80;99.90
14119;DHT22;7138;49.246;9.100;2024-03-23T02:13:15;8.80;99.90
14119;DHT22;7138;49.246;9.100;2024-03-23T02:15:41;8.80;99.90
14119;DHT22;7138;49.246;9.100;2024-03-23T02:18:09;8.80;99.90
14119;DHT22;7138;49.246;9.100;2024-03-23T02:20:35;8.80;99.90
14119;DHT22;7138;49.246;9.100;2024-03-23T02:23:02;8.90;99.90
14119;DHT22;7138;49.246;9.100;2024-03-23T02:25:28;9.00;99.90
14119;DHT22;7138;49.246;9.100;2024-03-23T02:27:54;8.90;99.90
14119;DHT22;7138;49.246;9.100;2024-03-23T02:30:20;8.90;99.90
14119;DHT22;7138;49.246;9.100;2024-03-23T02:32:46;8.90;99.90
14119;DHT22;7138;49.246;9.100;2024-03-23T02:35:12;9.10;99.90
14119;DHT22;7138;49.246;9.100;2024-03-23T02:37:38;9.00;99.90
14119;DHT22;7138;49.246;9.100;2024-03-23T02:40:06;9.10;99.90
14119;DHT22;7138;49.246;9.100;2024-03-23T02:42:32;9.10;99.90
14119;DHT22;7138;49.246;9.100;2024-03-23T02:44:58;9.20;99.90
14119;DHT22;7138;49.246;9.100;2024-03-23T02:47:24;9.20;99.90
14119;DHT22;7138;49.246;9.100;2024-03-23T02:49:50;9.10;99.90
14119;DHT22;7138;49.246;9.100;2024-03-23T02:52:16;9.10;99.90
14119;DHT22;7138;49.246;9.100;2024-03-23T02:54:42;9.00;99.90
14119;DHT22;7138;49.246;9.100;2024-03-23T02:57:11;9.00;99.90
14119;DHT22;7138;49.246;9.100;2024-03-23T02:59:37;9.10;99.90
14119;DHT22;7138;49.246;9.100;2024-03-23T03:02:03;9.10;99.90
14119;DHT22;7138;49.246;9.100;2024-03-23T03:04:30;9.20;99.90
14119;DHT22;7138;49.246;9.100;2024-03-23T03:06:56;9.50;99.90
14119;DHT22;7138;49.246;9.100;2024-03-23T03:09:22;9.80;99.90
14119;DHT22;7138;49.246;9.100;2024-03-23T03:11:47;10.20;99.90
14119;DHT22;7138;49.246;9.100;2024-03-23T03:14:15;10.30;99.90
14119;DHT22;7138;49.246;9.100;2024-03-23T03:16:40;10.50;99.90
14119;DHT22;7138;49.246;9.100;2024-03-23T03:19:06;10.60;99.90
14119;DHT22;7138;49.246;9.100;2024-03-23T03:21:32;10.60;99.90
14119;DHT22;7138;49.246;9.100;2024-03-23T03:23:58;10.70;99.90
14119;DHT22;7138;49.246;9.100;2024-03-23T03:26:24;10.80;99.90
14119;DHT22;7138;49.246;9.100;2024-03-23T03:28:50;10.80;99.90
14119;DHT22;7138;49.246;9.100;2024-03-23T03:31:17;11.00;99.90
14119;DHT22;7138;49.246;9.100;2024-03-23T03:33:44;11.00;99.90
14119;DHT22;7138;49.246;9.100;2024-03-23T03:36:10;11.10;99.90
14119;DHT22;7138;49.246;9.100;2024-03-23T03:38:36;11.10;99.90
14119;DHT22;7138;49.246;9.100;2024-03-23T03:41:02;11.20;99.90
14119;DHT22;7138;49.246;9.100;2024-03-23T03:43:28;11.30;99.90
14119;DHT22;7138;49.246;9.100;2024-03-23T03:45:55;11.30;99.90
14119;DHT22;7138;49.246;9.100;2024-03-23T03:48:23;11.30;99.90
14119;DHT22;7138;49.246;9.100;2024-03-23T03:50:49;11.30;99.90
14119;DHT22;7138;49.246;9.100;2024-03-23T03:53:15;11.40;99.90
14119;DHT22;7138;49.246;9.100;2024-03-23T03:55:41;11.40;99.90
14119;DHT22;7138;49.246;9.100;2024-03-23T03:58:07;11.40;99.90
14119;DHT22;7138;49.246;9.100;2024-03-23T04:00:33;11.50;99.90
14119;DHT22;7138;49.246;9.100;2024-03-23T04:02:59;11.50;99.90
14119;DHT22;7138;49.246;9.100;2024-03-23T04:05:26;11.50;99.90
14119;DHT22;7138;49.246;9.100;2024-03-23T04:07:52;11.60;99.90
14119;DHT22;7138;49.246;9.100;2024-03-23T04:10:18;11.70;99.90
14119;DHT22;7138;49.246;9.100;2024-03-23T04:12:44;11.60;99.90
14119;DHT22;7138;49.246;9.100;2024-03-23T04:15:10;11.60;99.90
14119;DHT22;7138;49.246;9.100;2024-03-23T04:17:36;11.70;99.90
14119;DHT22;7138;49.246;9.100;2024-03-23T04:20:03;11.70;99.90
14119;DHT22;7138;49.246;9.100;2024-03-23T04:22:35;11.70;99.90
14119;DHT22;7138;49.246;9.100;2024-03-23T04:25:02;11.70;99.90
14119;DHT22;7138;49.246;9.100;2024-03-23T04:27:32;11.70;99.90
14119;DHT22;7138;49.246;9.100;2024-03-23T04:29:57;11.80;99.90
14119;DHT22;7138;49.246;9.100;2024-03-23T04:32:23;11.70;99.90
14119;DHT22;7138;49.246;9.100;2024-03-23T04:34:49;11.70;99.90
14119;DHT22;7138;49.246;9.100;2024-03-23T04:37:15;11.70;99.90
14119;DHT22;7138;49.246;9.100;2024-03-23T04:39:43;11.70;99.90
14119;DHT22;7138;49.246;9.100;2024-03-23T04:42:09;11.70;99.90
14119;DHT22;7138;49.246;9.100;2024-03-23T04:44:34;11.70;99.90
14119;DHT22;7138;49.246;9.100;2024-03-23T04:47:00;11.60;99.90
14119;DHT22;7138;49.246;9.100;2024-03-23T04:49:27;11.60;99.90
14119;DHT22;7138;49.246;9.100;2024-03-23T04:51:52;11.60;99.90
14119;DHT22;7138;49.246;9.100;2024-03-23T04:54:18;11.60;99.90
14119;DHT22;7138;49.246;9.100;2024-03-23T04:56:45;11.60;99.90
14119;DHT22;7138;49.246;9.100;2024-03-23T04:59:11;11.50;99.90
14119;DHT22;7138;49.246;9.100;2024-03-23T05:01:37;11.40;99.90
14119;DHT22;7138;49.246;9.100;2024-03-23T05:04:05;11.40;99.90
14119;DHT22;7138;49.246;9.100;2024-03-23T05:06:31;11.30;99.90
14119;DHT22;7138;49.246;9.100;2024-03-23T05:08:57;11.30;99.90
14119;DHT22;7138;49.246;9.100;2024-03-23T05:11:23;11.30;99.90
14119;DHT22;7138;49.246;9.100;2024-03-23T05:13:50;11.30;99.90
14119;DHT22;7138;49.246;9.100;2024-03-23T05:16:16;11.20;99.90
14119;DHT22;7138;49.246;9.100;2024-03-23T05:18:42;11.10;99.90
14119;DHT22;7138;49.246;9.100;2024-03-23T05:21:07;11.00;99.90
14119;DHT22;7138;49.246;9.100;2024-03-23T05:23:33;10.90;99.90
14119;DHT22;7138;49.246;9.100;2024-03-23T05:25:59;10.70;99.90
14119;DHT22;7138;49.246;9.100;2024-03-23T05:28:25;10.70;99.90
14119;DHT22;7138;49.246;9.100;2024-03-23T05:30:53;10.60;99.90
14119;DHT22;7138;49.246;9.100;2024-03-23T05:33:20;10.50;99.90
14119;DHT22;7138;49.246;9.100;2024-03-23T05:35:47;10.50;99.90
14119;DHT22;7138;49.246;9.100;2024-03-23T05:38:22;10.50;99.90
14119;DHT22;7138;49.246;9.100;2024-03-23T05:40:53;10.50;99.90
14119;DHT22;7138;49.246;9.100;2024-03-23T05:43:19;10.40;99.90
14119;DHT22;7138;49.246;9.100;2024-03-23T05:45:45;10.30;99.90
14119;DHT22;7138;49.246;9.100;2024-03-23T05:48:12;10.20;99.90
14119;DHT22;7138;49.246;9.100;2024-03-23T05:50:38;10.20;99.90
14119;DHT22;7138;49.246;9.100;2024-03-23T05:53:04;10.20;99.90
14119;DHT22;7138;49.246;9.100;2024-03-23T05:55:30;10.10;99.90
14119;DHT22;7138;49.246;9.100;2024-03-23T05:57:57;10.00;99.90
14119;DHT22;7138;49.246;9.100;2024-03-23T06:00:23;9.90;99.90
14119;DHT22;7138;49.246;9.100;2024-03-23T06:02:51;9.90;99.90
14119;DHT22;7138;49.246;9.100;2024-03-23T06:05:18;9.80;99.90
14119;DHT22;7138;49.246;9.100;2024-03-23T06:07:44;9.70;99.90
14119;DHT22;7138;49.246;9.100;2024-03-23T06:10:10;9.70;99.90
14119;DHT22;7138;49.246;9.100;2024-03-23T06:12:36;9.60;99.90
14119;DHT22;7138;49.246;9.100;2024-03-23T06:15:02;9.60;99.90
14119;DHT22;7138;49.246;9.100;2024-03-23T06:17:28;9.60;99.90
14119;DHT22;7138;49.246;9.100;2024-03-23T06:19:54;9.60;99.90
14119;DHT22;7138;49.246;9.100;2024-03-23T06:22:21;9.60;99.90
14119;DHT22;7138;49.246;9.100;2024-03-23T06:24:48;9.60;99.90
14119;DHT22;7138;49.246;9.100;2024-03-23T06:27:13;9.60;99.90
14119;DHT22;7138;49.246;9.100;2024-03-23T06:29:39;9.60;99.90
14119;DHT22;7138;49.246;9.100;2024-03-23T06:32:05;9.60;99.90
14119;DHT22;7138;49.246;9.100;2024-03-23T06:34:31;9.20;99.90
14119;DHT22;7138;49.246;9.100;2024-03-23T06:36:57;8.80;99.90
14119;DHT22;7138;49.246;9.100;2024-03-23T06:39:24;8.50;99.90
14119;DHT22;7138;49.246;9.100;2024-03-23T06:41:54;8.30;99.90
14119;DHT22;7138;49.246;9.100;2024-03-23T06:44:20;8.20;99.90
14119;DHT22;7138;49.246;9.100;2024-03-23T06:46:46;8.00;99.90
14119;DHT22;7138;49.246;9.100;2024-03-23T06:49:14;8.00;99.90
14119;DHT22;7138;49.246;9.100;2024-03-23T06:51:41;7.90;99.90
14119;DHT22;7138;49.246;9.100;2024-03-23T06:54:06;7.80;99.90
14119;DHT22;7138;49.246;9.100;2024-03-23T06:56:34;7.60;99.90
14119;DHT22;7138;49.246;9.100;2024-03-23T06:59:00;7.50;99.90
14119;DHT22;7138;49.246;9.100;2024-03-23T07:01:25;7.50;99.90
14119;DHT22;7138;49.246;9.100;2024-03-23T07:03:51;7.50;99.90
14119;DHT22;7138;49.246;9.100;2024-03-23T07:06:17;7.40;99.90
14119;DHT22;7138;49.246;9.100;2024-03-23T07:08:43;7.30;99.90
14119;DHT22;7138;49.246;9.100;2024-03-23T07:11:09;7.40;99.90
14119;DHT22;7138;49.246;9.100;2024-03-23T07:13:36;7.40;99.90
14119;DHT22;7138;49.246;9.100;2024-03-23T07:16:02;7.30;99.90
14119;DHT22;7138;49.246;9.100;2024-03-23T07:18:28;7.40;99.90
14119;DHT22;7138;49.246;9.100;2024-03-23T07:20:54;7.40;99.90
14119;DHT22;7138;49.246;9.100;2024-03-23T07:23:22;7.50;99.90
14119;DHT22;7138;49.246;9.100;2024-03-23T07:25:56;7.50;99.90
14119;DHT22;7138;49.246;9.100;2024-03-23T07:28:22;7.60;99.90
14119;DHT22;7138;49.246;9.100;2024-03-23T07:31:02;7.70;99.90
14119;DHT22;7138;49.246;9.100;2024-03-23T07:33:28;7.60;99.90
14119;DHT22;7138;49.246;9.100;2024-03-23T07:35:54;7.70;99.90
14119;DHT22;7138;49.246;9.100;2024-03-23T07:38:19;7.70;99.90
14119;DHT22;7138;49.246;9.100;2024-03-23T07:40:45;7.60;99.90
14119;DHT22;7138;49.246;9.100;2024-03-23T07:43:11;7.60;99.90
14119;DHT22;7138;49.246;9.100;2024-03-23T07:45:37;7.60;99.90
14119;DHT22;7138;49.246;9.100;2024-03-23T07:48:05;7.70;99.90
14119;DHT22;7138;49.246;9.100;2024-03-23T07:50:32;7.80;99.90
14119;DHT22;7138;49.246;9.100;2024-03-23T07:52:57;8.10;99.90
14119;DHT22;7138;49.246;9.100;2024-03-23T07:55:23;8.20;99.90
14119;DHT22;7138;49.246;9.100;2024-03-23T07:57:51;8.40;99.90
14119;DHT22;7138;49.246;9.100;2024-03-23T08:00:17;8.30;99.90
14119;DHT22;7138;49.246;9.100;2024-03-23T08:02:43;8.10;99.90
14119;DHT22;7138;49.246;9.100;2024-03-23T08:05:10;8.30;99.90
14119;DHT22;7138;49.246;9.100;2024-03-23T08:07:36;9.10;99.90
14119;DHT22;7138;49.246;9.100;2024-03-23T08:10:03;8.90;99.90
14119;DHT22;7138;49.246;9.100;2024-03-23T08:12:29;8.40;99.90
14119;DHT22;7138;49.246;9.100;2024-03-23T08:14:55;8.30;99.90
14119;DHT22;7138;49.246;9.100;2024-03-23T08:17:21;8.30;99.90
14119;DHT22;7138;49.246;9.100;2024-03-23T08:19:48;8.30;99.90
14119;DHT22;7138;49.246;9.100;2024-03-23T08:22:15;8.40;99.90
14119;DHT22;7138;49.246;9.100;2024-03-23T08:24:41;8.60;99.90
14119;DHT22;7138;49.246;9.100;2024-03-23T08:27:06;8.30;99.90
14119;DHT22;7138;49.246;9.100;2024-03-23T08:29:32;9.50;99.90
14119;DHT22;7138;49.246;9.100;2024-03-23T08:31:58;10.20;99.90
14119;DHT22;7138;49.246;9.100;2024-03-23T08:34:24;9.60;99.90
14119;DHT22;7138;49.246;9.100;2024-03-23T08:36:50;8.90;99.90
14119;DHT22;7138;49.246;9.100;2024-03-23T08:39:17;8.50;99.90
14119;DHT22;7138;49.246;9.100;2024-03-23T08:41:43;8.10;99.90
14119;DHT22;7138;49.246;9.100;2024-03-23T08:44:11;7.90;99.90
14119;DHT22;7138;49.246;9.100;2024-03-23T08:46:37;7.80;99.90
14119;DHT22;7138;49.246;9.100;2024-03-23T08:49:03;8.00;99.90
14119;DHT22;7138;49.246;9.100;2024-03-23T08:51:29;8.20;99.90
14119;DHT22;7138;49.246;9.100;2024-03-23T08:53:55;8.40;99.90
14119;DHT22;7138;49.246;9.100;2024-03-23T08:56:22;9.10;99.90
14119;DHT22;7138;49.246;9.100;2024-03-23T08:58:48;9.10;99.90
14119;DHT22;7138;49.246;9.100;2024-03-23T09:01:14;9.00;99.90
14119;DHT22;7138;49.246;9.100;2024-03-23T09:03:40;9.70;99.90
14119;DHT22;7138;49.246;9.100;2024-03-23T09:06:07;9.80;99.90
14119;DHT22;7138;49.246;9.100;2024-03-23T09:08:34;9.90;99.90
14119;DHT22;7138;49.246;9.100;2024-03-23T09:11:04;10.40;99.90
14119;DHT22;7138;49.246;9.100;2024-03-23T09:13:32;10.90;99.90
14119;DHT22;7138;49.246;9.100;2024-03-23T09:15:58;10.80;99.90
14119;DHT22;7138;49.246;9.100;2024-03-23T09:18:24;10.50;99.90
14119;DHT22;7138;49.246;9.100;2024-03-23T09:20:50;10.40;99.90
14119;DHT22;7138;49.246;9.100;2024-03-23T09:23:17;10.50;99.90
14119;DHT22;7138;49.246;9.100;2024-03-23T09:25:43;11.30;99.90
14119;DHT22;7138;49.246;9.100;2024-03-23T09:28:09;11.00;99.90
14119;DHT22;7138;49.246;9.100;2024-03-23T09:30:36;10.80;99.90
14119;DHT22;7138;49.246;9.100;2024-03-23T09:33:07;10.90;99.90
14119;DHT22;7138;49.246;9.100;2024-03-23T09:35:36;10.70;99.90
14119;DHT22;7138;49.246;9.100;2024-03-23T09:38:03;11.10;99.90
14119;DHT22;7138;49.246;9.100;2024-03-23T09:40:29;10.90;99.90
14119;DHT22;7138;49.246;9.100;2024-03-23T09:42:55;10.10;99.90
14119;DHT22;7138;49.246;9.100;2024-03-23T09:45:26;9.50;99.90
14119;DHT22;7138;49.246;9.100;2024-03-23T09:47:54;9.90;99.90
14119;DHT22;7138;49.246;9.100;2024-03-23T09:50:21;9.60;99.90
14119;DHT22;7138;49.246;9.100;2024-03-23T09:52:47;9.20;99.90
14119;DHT22;7138;49.246;9.100;2024-03-23T09:55:14;9.00;99.90
14119;DHT22;7138;49.246;9.100;2024-03-23T09:57:40;8.90;99.90
14119;DHT22;7138;49.246;9.100;2024-03-23T10:00:06;9.00;99.90
14119;DHT22;7138;49.246;9.100;2024-03-23T10:02:34;9.20;99.90
14119;DHT22;7138;49.246;9.100;2024-03-23T10:05:02;10.50;99.90
14119;DHT22;7138;49.246;9.100;2024-03-23T10:07:28;10.40;99.90
14119;DHT22;7138;49.246;9.100;2024-03-23T10:09:55;10.20;99.90
14119;DHT22;7138;49.246;9.100;2024-03-23T10:12:22;9.80;99.90
14119;DHT22;7138;49.246;9.100;2024-03-23T10:14:49;9.60;99.90
14119;DHT22;7138;49.246;9.100;2024-03-23T10:17:16;9.50;99.90
14119;DHT22;7138;49.246;9.100;2024-03-23T10:19:43;9.40;99.90
14119;DHT22;7138;49.246;9.100;2024-03-23T10:22:13;9.50;99.90
14119;DHT22;7138;49.246;9.100;2024-03-23T10:24:40;9.80;99.90
14119;DHT22;7138;49.246;9.100;2024-03-23T10:27:06;9.70;99.90
14119;DHT22;7138;49.246;9.100;2024-03-23T10:29:32;9.60;99.90
14119;DHT22;7138;49.246;9.100;2024-03-23T10:32:08;9.50;99.90
14119;DHT22;7138;49.246;9.100;2024-03-23T10:34:35;9.50;99.90
14119;DHT22;7138;49.246;9.100;2024-03-23T10:37:03;9.40;99.90
14119;DHT22;7138;49.246;9.100;2024-03-23T10:39:32;9.10;99.90
14119;DHT22;7138;49.246;9.100;2024-03-23T10:42:03;9.00;99.90
14119;DHT22;7138;49.246;9.100;2024-03-23T10:44:31;8.90;99.90
14119;DHT22;7138;49.246;9.100;2024-03-23T10:46:58;8.80;99.90
14119;DHT22;7138;49.246;9.100;2024-03-23T10:49:26;8.80;99.90
14119;DHT22;7138;49.246;9.100;2024-03-23T10:51:55;8.80;99.90
14119;DHT22;7138;49.246;9.100;2024-03-23T10:54:24;8.90;99.90
14119;DHT22;7138;49.246;9.100;2024-03-23T10:56:56;8.90;99.90
14119;DHT22;7138;49.246;9.100;2024-03-23T10:59:25;9.00;99.90
14119;DHT22;7138;49.246;9.100;2024-03-23T11:01:55;9.20;99.90
14119;DHT22;7138;49.246;9.100;2024-03-23T11:04:32;9.60;99.90
14119;DHT22;7138;49.246;9.100;2024-03-23T11:06:58;10.20;99.90
14119;DHT22;7138;49.246;9.100;2024-03-23T11:09:43;10.60;99.90
14119;DHT22;7138;49.246;9.100;2024-03-23T11:12:27;10.30;99.90
14119;DHT22;7138;49.246;9.100;2024-03-23T11:15:02;10.40;99.90
14119;DHT22;7138;49.246;9.100;2024-03-23T11:17:29;11.10;99.90
14119;DHT22;7138;49.246;9.100;2024-03-23T11:19:57;11.70;99.90
14119;DHT22;7138;49.246;9.100;2024-03-23T11:22:42;11.40;99.90
14119;DHT22;7138;49.246;9.100;2024-03-23T11:25:13;11.30;99.90
14119;DHT22;7138;49.246;9.100;2024-03-23T11:27:42;11.30;99.90
14119;DHT22;7138;49.246;9.100;2024-03-23T11:30:16;11.70;99.90
14119;DHT22;7138;49.246;9.100;2024-03-23T11:32:44;12.80;99.90
14119;DHT22;7138;49.246;9.100;2024-03-23T11:35:10;12.00;99.90
14119;DHT22;7138;49.246;9.100;2024-03-23T11:38:01;12.10;99.90
14119;DHT22;7138;49.246;9.100;2024-03-23T11:40:29;11.50;99.90
14119;DHT22;7138;49.246;9.100;2024-03-23T11:42:59;10.70;99.90
14119;DHT22;7138;49.246;9.100;2024-03-23T11:45:26;10.50;99.90
14119;DHT22;7138;49.246;9.100;2024-03-23T11:48:02;10.30;99.90
14119;DHT22;7138;49.246;9.100;2024-03-23T11:50:32;10.10;99.90
14119;DHT22;7138;49.246;9.100;2024-03-23T11:53:13;10.00;99.90
14119;DHT22;7138;49.246;9.100;2024-03-23T11:55:42;10.70;99.90
14119;DHT22;7138;49.246;9.100;2024-03-23T11:58:11;11.20;99.90
14119;DHT22;7138;49.246;9.100;2024-03-23T12:00:37;11.30;99.90
14119;DHT22;7138;49.246;9.100;2024-03-23T12:03:04;11.20;99.90
14119;DHT22;7138;49.246;9.100;2024-03-23T12:05:31;10.90;99.90
14119;DHT22;7138;49.246;9.100;2024-03-23T12:08:15;11.00;99.90
14119;DHT22;7138;49.246;9.100;2024-03-23T12:10:48;12.30;99.90
14119;DHT22;7138;49.246;9.100;2024-03-23T12:13:17;11.90;99.90
14119;DHT22;7138;49.246;9.100;2024-03-23T12:15:44;12.00;99.90
14119;DHT22;7138;49.246;9.100;2024-03-23T12:18:11;12.00;99.90
14119;DHT22;7138;49.246;9.100;2024-03-23T12:20:37;11.80;99.90
14119;DHT22;7138;49.246;9.100;2024-03-23T12:23:08;12.70;99.90
14119;DHT22;7138;49.246;9.100;2024-03-23T12:25:35;11.70;99.90
14119;DHT22;7138;49.246;9.100;2024-03-23T12:28:02;11.00;99.90
14119;DHT22;7138;49.246;9.100;2024-03-23T12:30:29;10.60;99.90
14119;DHT22;7138;49.246;9.100;2024-03-23T12:32:55;10.90;99.90
14119;DHT22;7138;49.246;9.100;2024-03-23T12:35:21;11.50;99.90
14119;DHT22;7138;49.246;9.100;2024-03-23T12:37:47;11.80;99.90
14119;DHT22;7138;49.246;9.100;2024-03-23T12:40:13;12.10;99.90
14119;DHT22;7138;49.246;9.100;2024-03-23T12:42:38;12.20;99.90
14119;DHT22;7138;49.246;9.100;2024-03-23T12:45:05;12.50;99.60
14119;DHT22;7138;49.246;9.100;2024-03-23T12:47:33;11.70;98.70
14119;DHT22;7138;49.246;9.100;2024-03-23T12:49:59;11.50;99.90
14119;DHT22;7138;49.246;9.100;2024-03-23T12:52:24;12.20;99.90
14119;DHT22;7138;49.246;9.100;2024-03-23T12:54:54;12.00;99.80
14119;DHT22;7138;49.246;9.100;2024-03-23T12:57:22;10.30;99.90
14119;DHT22;7138;49.246;9.100;2024-03-23T12:59:49;9.60;99.90
14119;DHT22;7138;49.246;9.100;2024-03-23T13:02:17;8.90;99.90
14119;DHT22;7138;49.246;9.100;2024-03-23T13:04:46;8.60;99.90
14119;DHT22;7138;49.246;9.100;2024-03-23T13:07:12;8.70;99.90
14119;DHT22;7138;49.246;9.100;2024-03-23T13:09:38;8.30;99.90
14119;DHT22;7138;49.246;9.100;2024-03-23T13:12:04;8.00;99.90
14119;DHT22;7138;49.246;9.100;2024-03-23T13:14:31;7.60;99.90
14119;DHT22;7138;49.246;9.100;2024-03-23T13:16:57;7.30;99.90
14119;DHT22;7138;49.246;9.100;2024-03-23T13:19:22;7.40;99.90
14119;DHT22;7138;49.246;9.100;2024-03-23T13:21:53;7.30;99.90
14119;DHT22;7138;49.246;9.100;2024-03-23T13:24:22;7.20;99.90
14119;DHT22;7138;49.246;9.100;2024-03-23T13:26:49;7.50;99.90
14119;DHT22;7138;49.246;9.100;2024-03-23T13:29:16;7.80;99.90
14119;DHT22;7138;49.246;9.100;2024-03-23T13:31:42;7.90;99.90
14119;DHT22;7138;49.246;9.100;2024-03-23T13:34:08;7.90;99.90
14119;DHT22;7138;49.246;9.100;2024-03-23T13:36:33;8.10;99.90
14119;DHT22;7138;49.246;9.100;2024-03-23T13:39:02;8.90;99.90
14119;DHT22;7138;49.246;9.100;2024-03-23T13:41:34;8.90;99.90
14119;DHT22;7138;49.246;9.100;2024-03-23T13:44:00;8.80;99.90
14119;DHT22;7138;49.246;9.100;2024-03-23T13:46:26;8.10;99.90
14119;DHT22;7138;49.246;9.100;2024-03-23T13:48:51;7.80;99.90
14119;DHT22;7138;49.246;9.100;2024-03-23T13:51:23;7.40;99.90
14119;DHT22;7138;49.246;9.100;2024-03-23T13:53:50;6.70;99.90
14119;DHT22;7138;49.246;9.100;2024-03-23T13:56:17;5.90;99.90
14119;DHT22;7138;49.246;9.100;2024-03-23T13:58:43;5.60;99.90
14119;DHT22;7138;49.246;9.100;2024-03-23T14:01:12;6.10;99.90
14119;DHT22;7138;49.246;9.100;2024-03-23T14:03:39;7.30;99.90
14119;DHT22;7138;49.246;9.100;2024-03-23T14:06:06;7.50;99.90
14119;DHT22;7138;49.246;9.100;2024-03-23T14:08:33;7.80;99.90
14119;DHT22;7138;49.246;9.100;2024-03-23T14:11:01;7.90;99.90
14119;DHT22;7138;49.246;9.100;2024-03-23T14:13:30;8.00;99.90
14119;DHT22;7138;49.246;9.100;2024-03-23T14:15:56;8.30;99.90
14119;DHT22;7138;49.246;9.100;2024-03-23T14:18:22;7.70;99.90
14119;DHT22;7138;49.246;9.100;2024-03-23T14:20:48;7.50;99.90
14119;DHT22;7138;49.246;9.100;2024-03-23T14:23:14;7.30;99.90
14119;DHT22;7138;49.246;9.100;2024-03-23T14:25:40;7.60;99.90
14119;DHT22;7138;49.246;9.100;2024-03-23T14:28:06;8.10;99.90
14119;DHT22;7138;49.246;9.100;2024-03-23T14:30:35;8.60;99.90
14119;DHT22;7138;49.246;9.100;2024-03-23T14:33:01;9.40;99.90
14119;DHT22;7138;49.246;9.100;2024-03-23T14:35:26;9.50;99.90
14119;DHT22;7138;49.246;9.100;2024-03-23T14:37:52;9.00;99.90
14119;DHT22;7138;49.246;9.100;2024-03-23T14:40:18;9.10;99.90
14119;DHT22;7138;49.246;9.100;2024-03-23T14:42:44;9.00;99.90
14119;DHT22;7138;49.246;9.100;2024-03-23T14:45:10;8.90;99.90
14119;DHT22;7138;49.246;9.100;2024-03-23T14:47:38;8.60;99.90
14119;DHT22;7138;49.246;9.100;2024-03-23T14:50:04;8.30;99.90
14119;DHT22;7138;49.246;9.100;2024-03-23T14:52:33;8.20;99.90
14119;DHT22;7138;49.246;9.100;2024-03-23T14:54:59;8.10;99.90
14119;DHT22;7138;49.246;9.100;2024-03-23T14:57:25;8.10;99.90
14119;DHT22;7138;49.246;9.100;2024-03-23T14:59:51;8.20;99.90
14119;DHT22;7138;49.246;9.100;2024-03-23T15:02:17;8.00;99.90
14119;DHT22;7138;49.246;9.100;2024-03-23T15:04:44;8.40;99.90
14119;DHT22;7138;49.246;9.100;2024-03-23T15:07:10;8.90;99.90
14119;DHT22;7138;49.246;9.100;2024-03-23T15:09:36;9.10;99.90
14119;DHT22;7138;49.246;9.100;2024-03-23T15:12:02;8.50;99.90
14119;DHT22;7138;49.246;9.100;2024-03-23T15:14:28;8.30;99.90
14119;DHT22;7138;49.246;9.100;2024-03-23T15:16:53;8.60;99.90
14119;DHT22;7138;49.246;9.100;2024-03-23T15:19:19;8.70;99.90
14119;DHT22;7138;49.246;9.100;2024-03-23T15:21:46;8.90;99.90
14119;DHT22;7138;49.246;9.100;2024-03-23T15:24:12;9.00;99.90
14119;DHT22;7138;49.246;9.100;2024-03-23T15:26:38;9.00;99.90
14119;DHT22;7138;49.246;9.100;2024-03-23T15:29:04;9.00;99.90
14119;DHT22;7138;49.246;9.100;2024-03-23T15:31:37;8.80;99.90
14119;DHT22;7138;49.246;9.100;2024-03-23T15:34:03;8.80;99.90
14119;DHT22;7138;49.246;9.100;2024-03-23T15:36:30;8.60;99.90
14119;DHT22;7138;49.246;9.100;2024-03-23T15:38:58;8.70;99.90
14119;DHT22;7138;49.246;9.100;2024-03-23T15:41:24;8.70;99.90
14119;DHT22;7138;49.246;9.100;2024-03-23T15:43:50;8.80;99.90
14119;DHT22;7138;49.246;9.100;2024-03-23T15:46:16;8.70;99.90
14119;DHT22;7138;49.246;9.100;2024-03-23T15:48:43;8.80;99.90
14119;DHT22;7138;49.246;9.100;2024-03-23T15:51:12;8.60;99.90
14119;DHT22;7138;49.246;9.100;2024-03-23T15:53:38;8.80;99.90
14119;DHT22;7138;49.246;9.100;2024-03-23T15:56:06;8.80;99.90
14119;DHT22;7138;49.246;9.100;2024-03-23T15:58:33;8.70;99.90
14119;DHT22;7138;49.246;9.100;2024-03-23T16:01:04;8.50;99.90
14119;DHT22;7138;49.246;9.100;2024-03-23T16:03:32;8.40;99.90
14119;DHT22;7138;49.246;9.100;2024-03-23T16:05:59;8.10;99.90
14119;DHT22;7138;49.246;9.100;2024-03-23T16:08:26;7.90;99.90
14119;DHT22;7138;49.246;9.100;2024-03-23T16:10:53;7.70;99.90
14119;DHT22;7138;49.246;9.100;2024-03-23T16:13:21;7.60;99.90
14119;DHT22;7138;49.246;9.100;2024-03-23T16:15:54;7.50;99.90
14119;DHT22;7138;49.246;9.100;2024-03-23T16:18:20;7.40;99.90
14119;DHT22;7138;49.246;9.100;2024-03-23T16:20:52;7.40;99.90
14119;DHT22;7138;49.246;9.100;2024-03-23T16:23:18;7.40;99.90
14119;DHT22;7138;49.246;9.100;2024-03-23T16:25:46;7.50;99.90
14119;DHT22;7138;49.246;9.100;2024-03-23T16:28:23;7.40;99.90
14119;DHT22;7138;49.246;9.100;2024-03-23T16:30:56;7.50;99.90
14119;DHT22;7138;49.246;9.100;2024-03-23T16:33:22;7.40;99.90
14119;DHT22;7138;49.246;9.100;2024-03-23T16:35:59;6.20;99.90
14119;DHT22;7138;49.246;9.100;2024-03-23T16:38:27;5.30;99.90
14119;DHT22;7138;49.246;9.100;2024-03-23T16:40:57;4.60;99.90
14119;DHT22;7138;49.246;9.100;2024-03-23T16:43:27;4.30;99.90
14119;DHT22;7138;49.246;9.100;2024-03-23T16:45:55;4.20;99.90
14119;DHT22;7138;49.246;9.100;2024-03-23T16:48:23;4.10;99.90